createdAt,value
2022-08-08T00:00:54.585Z,14.40
2022-08-08T00:02:54.498Z,14.40
2022-08-08T00:06:03.142Z,14.40
2022-08-08T00:08:43.536Z,14.40
2022-08-08T00:12:02.858Z,14.40
2022-08-08T00:14:48.311Z,14.30
2022-08-08T00:17:23.473Z,14.30
2022-08-08T00:20:01.299Z,14.20
2022-08-08T00:23:01.685Z,14.30
2022-08-08T00:25:39.130Z,14.20
2022-08-08T00:28:33.983Z,14.10
2022-08-08T00:32:21.474Z,14.10
2022-08-08T00:34:34.960Z,14.10
2022-08-08T00:37:47.667Z,14.00
2022-08-08T00:41:09.360Z,14.00
2022-08-08T00:43:40.629Z,14.00
2022-08-08T00:46:17.256Z,14.00
2022-08-08T00:49:23.104Z,13.80
2022-08-08T00:52:24.879Z,13.80
2022-08-08T00:55:17.741Z,13.70
2022-08-08T00:57:58.193Z,13.60
2022-08-08T01:00:33.358Z,13.60
2022-08-08T01:03:58.326Z,13.60
2022-08-08T01:06:59.938Z,13.50
2022-08-08T01:10:21.099Z,13.50
2022-08-08T01:12:58.419Z,13.50
2022-08-08T01:15:47.236Z,13.40
2022-08-08T01:18:25.377Z,13.40
2022-08-08T01:22:12.734Z,13.40
2022-08-08T01:24:37.437Z,13.40
2022-08-08T01:27:33.186Z,13.40
2022-08-08T01:30:43.487Z,13.40
2022-08-08T01:33:42.828Z,13.30
2022-08-08T01:36:34.718Z,13.30
2022-08-08T01:39:18.539Z,13.20
2022-08-08T01:42:01.569Z,13.10
2022-08-08T01:45:02.918Z,13.10
2022-08-08T01:48:14.798Z,13.10
2022-08-08T01:51:30.758Z,13.00
2022-08-08T01:55:26.545Z,13.00
2022-08-08T01:58:04.272Z,12.90
2022-08-08T02:00:57.346Z,12.80
2022-08-08T02:04:00.854Z,12.80
2022-08-08T02:07:06.405Z,12.80
2022-08-08T02:10:13.793Z,12.80
2022-08-08T02:13:54.485Z,12.80
2022-08-08T02:16:35.200Z,12.80
2022-08-08T02:19:41.737Z,12.80
2022-08-08T02:22:45.766Z,12.80
2022-08-08T02:25:48.642Z,12.70
2022-08-08T02:28:52.556Z,12.80
2022-08-08T02:32:01.303Z,12.70
2022-08-08T02:35:10.989Z,12.70
2022-08-08T02:38:25.641Z,12.60
2022-08-08T02:42:04.261Z,12.50
2022-08-08T02:45:18.571Z,12.60
2022-08-08T02:48:25.878Z,12.50
2022-08-08T02:51:46.348Z,12.40
2022-08-08T02:54:51.967Z,12.40
2022-08-08T02:57:58.489Z,12.40
2022-08-08T03:01:05.255Z,12.40
2022-08-08T03:05:04.714Z,12.30
2022-08-08T03:07:19.395Z,12.20
2022-08-08T03:10:32.578Z,12.20
2022-08-08T03:15:53.646Z,12.10
2022-08-08T03:16:36.041Z,12.10
2022-08-08T03:19:23.916Z,12.10
2022-08-08T03:21:58.560Z,12.10
2022-08-08T03:24:28.922Z,12.00
2022-08-08T03:27:21.756Z,11.90
2022-08-08T03:30:01.927Z,12.00
2022-08-08T03:32:57.685Z,12.00
2022-08-08T03:35:33.443Z,12.00
2022-08-08T03:38:57.942Z,11.90
2022-08-08T03:40:55.827Z,11.90
2022-08-08T03:43:38.225Z,11.90
2022-08-08T03:46:08.922Z,11.80
2022-08-08T03:49:56.374Z,11.80
2022-08-08T03:51:50.278Z,11.70
2022-08-08T03:54:41.651Z,11.80
2022-08-08T03:58:31.361Z,11.80
2022-08-08T03:59:59.546Z,11.80
2022-08-08T04:02:47.294Z,11.80
2022-08-08T04:05:28.273Z,11.80
2022-08-08T04:08:01.307Z,11.80
2022-08-08T04:10:32.047Z,11.80
2022-08-08T04:13:17.449Z,11.80
2022-08-08T04:15:54.337Z,11.80
2022-08-08T04:18:21.262Z,11.80
2022-08-08T04:20:47.993Z,11.70
2022-08-08T04:23:15.317Z,11.80
2022-08-08T04:25:42.435Z,11.80
2022-08-08T04:28:36.901Z,11.70
2022-08-08T04:30:57.925Z,11.70
2022-08-08T04:33:28.174Z,11.70
2022-08-08T04:36:06.250Z,11.70
2022-08-08T04:38:33.068Z,11.70
2022-08-08T04:41:02.235Z,11.80
2022-08-08T04:43:31.984Z,11.80
2022-08-08T04:46:15.038Z,11.80
2022-08-08T04:48:43.378Z,11.90
2022-08-08T04:51:10.211Z,11.90
2022-08-08T04:54:26.783Z,12.00
2022-08-08T04:56:24.448Z,12.00
2022-08-08T04:58:51.255Z,12.00
2022-08-08T05:01:19.646Z,12.10
2022-08-08T05:04:09.918Z,12.10
2022-08-08T05:06:40.430Z,12.20
2022-08-08T05:09:09.886Z,12.10
2022-08-08T05:11:40.790Z,12.10
2022-08-08T05:14:12.333Z,12.10
2022-08-08T05:16:52.485Z,12.10
2022-08-08T05:20:12.631Z,12.10
2022-08-08T05:22:17.425Z,12.20
2022-08-08T05:24:48.640Z,12.20
2022-08-08T05:27:17.575Z,12.30
2022-08-08T05:29:45.626Z,12.30
2022-08-08T05:32:24.599Z,12.40
2022-08-08T05:35:04.975Z,12.50
2022-08-08T05:37:53.094Z,12.60
2022-08-08T05:40:29.146Z,12.90
2022-08-08T05:43:17.273Z,14.10
2022-08-08T05:46:07.753Z,15.70
2022-08-08T05:48:38.625Z,18.00
2022-08-08T05:51:13.241Z,18.90
2022-08-08T05:54:24.790Z,18.80
2022-08-08T05:56:42.198Z,19.60
2022-08-08T06:00:00.731Z,19.10
2022-08-08T06:02:27.358Z,18.20
2022-08-08T06:04:58.881Z,18.10
2022-08-08T06:07:27.806Z,17.60
2022-08-08T06:09:59.654Z,17.10
2022-08-08T06:12:33.961Z,16.70
2022-08-08T06:15:06.325Z,16.70
2022-08-08T06:18:18.335Z,16.70
2022-08-08T06:20:25.814Z,16.80
2022-08-08T06:22:54.507Z,16.90
2022-08-08T06:26:35.228Z,17.00
2022-08-08T06:28:28.983Z,17.20
2022-08-08T06:31:01.863Z,17.40
2022-08-08T06:34:25.653Z,17.40
2022-08-08T06:36:46.683Z,17.50
2022-08-08T06:39:22.289Z,17.50
2022-08-08T06:42:10.267Z,17.60
2022-08-08T06:44:44.119Z,17.80
2022-08-08T06:47:12.007Z,17.90
2022-08-08T06:49:54.935Z,18.10
2022-08-08T06:52:24.327Z,18.30
2022-08-08T06:54:58.590Z,18.60
2022-08-08T06:57:29.458Z,18.80
2022-08-08T07:00:13.050Z,19.00
2022-08-08T07:02:51.621Z,19.30
2022-08-08T07:05:24.914Z,19.40
2022-08-08T07:08:08.901Z,19.60
2022-08-08T07:10:47.547Z,19.80
2022-08-08T07:13:17.826Z,20.20
2022-08-08T07:16:10.326Z,20.50
2022-08-08T07:19:06.324Z,20.70
2022-08-08T07:21:50.559Z,20.80
2022-08-08T07:24:31.508Z,21.10
2022-08-08T07:27:05.610Z,21.30
2022-08-08T07:30:01.725Z,21.60
2022-08-08T07:32:27.139Z,21.60
2022-08-08T07:35:00.887Z,21.70
2022-08-08T07:37:49.738Z,21.90
2022-08-08T07:40:29.714Z,21.90
2022-08-08T07:43:04.157Z,22.10
2022-08-08T07:46:05.319Z,22.20
2022-08-08T07:48:25.428Z,22.40
2022-08-08T07:51:00.640Z,22.40
2022-08-08T07:54:02.085Z,22.50
2022-08-08T07:56:36.208Z,22.70
2022-08-08T07:59:14.410Z,22.90
2022-08-08T08:02:35.535Z,23.10
2022-08-08T08:04:52.864Z,23.10
2022-08-08T08:07:26.012Z,23.20
2022-08-08T08:10:03.291Z,23.20
2022-08-08T08:12:41.287Z,23.30
2022-08-08T08:15:15.179Z,23.20
2022-08-08T08:17:49.099Z,23.50
2022-08-08T08:20:30.436Z,23.50
2022-08-08T08:22:59.070Z,23.50
2022-08-08T08:25:42.998Z,23.40
2022-08-08T08:28:21.441Z,23.60
2022-08-08T08:30:53.820Z,23.60
2022-08-08T08:33:23.115Z,23.60
2022-08-08T08:36:19.662Z,23.70
2022-08-08T08:39:17.356Z,23.80
2022-08-08T08:41:51.246Z,24.00
2022-08-08T08:44:19.440Z,24.10
2022-08-08T08:46:50.957Z,24.20
2022-08-08T08:49:22.469Z,24.20
2022-08-08T08:51:56.405Z,24.30
2022-08-08T08:54:26.056Z,24.30
2022-08-08T08:57:01.226Z,24.40
2022-08-08T09:00:01.789Z,24.40
2022-08-08T09:02:24.421Z,24.20
2022-08-08T09:04:59.195Z,24.30
2022-08-08T09:07:39.505Z,24.40
2022-08-08T09:10:17.608Z,24.50
2022-08-08T09:12:50.607Z,24.60
2022-08-08T09:15:40.904Z,24.50
2022-08-08T09:18:07.217Z,24.50
2022-08-08T09:22:02.791Z,24.60
2022-08-08T09:23:33.281Z,24.50
2022-08-08T09:26:39.565Z,24.60
2022-08-08T09:29:09.594Z,24.70
2022-08-08T09:31:56.593Z,24.90
2022-08-08T09:34:34.624Z,25.00
2022-08-08T09:37:58.322Z,24.90
2022-08-08T09:40:11.416Z,24.90
2022-08-08T09:42:51.430Z,24.90
2022-08-08T09:45:55.149Z,24.60
2022-08-08T09:48:28.894Z,24.60
2022-08-08T09:51:05.104Z,24.80
2022-08-08T09:54:06.878Z,24.70
2022-08-08T09:56:45.337Z,24.80
2022-08-08T10:00:02.152Z,25.00
2022-08-08T10:02:20.047Z,25.10
2022-08-08T10:04:52.626Z,25.40
2022-08-08T10:07:19.759Z,25.70
2022-08-08T10:10:00.119Z,25.70
2022-08-08T10:12:54.340Z,25.80
2022-08-08T10:15:26.639Z,25.90
2022-08-08T10:18:06.408Z,25.80
2022-08-08T10:20:57.767Z,25.80
2022-08-08T10:23:44.947Z,25.70
2022-08-08T10:26:16.905Z,25.40
2022-08-08T10:29:03.770Z,25.40
2022-08-08T10:31:53.369Z,25.40
2022-08-08T10:34:23.642Z,25.40
2022-08-08T10:36:52.056Z,25.40
2022-08-08T10:39:31.534Z,25.30
2022-08-08T10:42:14.944Z,25.40
2022-08-08T10:44:43.453Z,25.60
2022-08-08T10:47:21.218Z,25.50
2022-08-08T10:50:01.470Z,25.50
2022-08-08T10:52:34.174Z,25.60
2022-08-08T10:55:06.794Z,25.50
2022-08-08T10:57:50.101Z,25.60
2022-08-08T11:00:25.962Z,25.70
2022-08-08T11:02:54.951Z,25.70
2022-08-08T11:05:23.198Z,25.70
2022-08-08T11:08:37.054Z,25.80
2022-08-08T11:10:41.530Z,25.80
2022-08-08T11:16:01.172Z,26.00
2022-08-08T11:18:37.554Z,26.00
2022-08-08T11:21:09.314Z,26.20
2022-08-08T11:23:42.117Z,26.30
2022-08-08T11:26:18.755Z,26.30
2022-08-08T11:28:47.176Z,26.40
2022-08-08T11:31:18.217Z,26.30
2022-08-08T11:34:02.926Z,26.30
2022-08-08T11:36:33.216Z,26.30
2022-08-08T11:39:04.664Z,26.10
2022-08-08T11:41:32.249Z,26.30
2022-08-08T11:44:00.834Z,26.30
2022-08-08T11:46:30.598Z,26.50
2022-08-08T11:48:59.773Z,26.70
2022-08-08T11:51:38.383Z,26.80
2022-08-08T11:54:27.324Z,26.90
2022-08-08T11:56:57.920Z,26.80
2022-08-08T12:00:02.087Z,26.70
2022-08-08T12:02:41.697Z,26.70
2022-08-08T12:05:13.168Z,26.70
2022-08-08T12:11:03.232Z,26.70
2022-08-08T12:13:33.568Z,26.90
2022-08-08T12:16:19.828Z,26.90
2022-08-08T12:18:49.382Z,27.00
2022-08-08T12:21:59.919Z,27.20
2022-08-08T12:24:27.925Z,27.20
2022-08-08T12:26:57.153Z,27.00
2022-08-08T12:29:42.054Z,27.00
2022-08-08T12:32:20.176Z,27.00
2022-08-08T12:35:04.649Z,27.00
2022-08-08T12:37:43.191Z,27.10
2022-08-08T12:40:23.906Z,27.20
2022-08-08T12:42:52.564Z,27.30
2022-08-08T12:45:54.162Z,27.40
2022-08-08T12:48:36.481Z,27.50
2022-08-08T12:51:05.356Z,27.40
2022-08-08T12:53:42.464Z,27.40
2022-08-08T12:56:19.589Z,27.50
2022-08-08T12:58:54.506Z,27.50
2022-08-08T13:01:37.575Z,27.40
2022-08-08T13:04:24.386Z,27.50
2022-08-08T13:07:00.507Z,27.40
2022-08-08T13:09:57.494Z,27.40
2022-08-08T13:12:30.489Z,27.50
2022-08-08T13:14:59.748Z,27.70
2022-08-08T13:18:08.941Z,27.80
2022-08-08T13:20:19.826Z,28.00
2022-08-08T13:22:47.386Z,28.00
2022-08-08T13:25:22.051Z,28.10
2022-08-08T13:27:56.485Z,27.90
2022-08-08T13:30:28.528Z,28.00
2022-08-08T13:32:57.307Z,28.10
2022-08-08T13:35:29.807Z,28.20
2022-08-08T13:38:08.551Z,28.10
2022-08-08T13:40:41.682Z,28.10
2022-08-08T13:43:13.024Z,28.20
2022-08-08T13:45:40.942Z,28.20
2022-08-08T13:48:17.350Z,28.10
2022-08-08T13:50:57.699Z,28.00
2022-08-08T13:53:40.833Z,27.80
2022-08-08T13:56:59.543Z,27.80
2022-08-08T13:59:32.811Z,27.70
2022-08-08T14:02:05.364Z,27.80
2022-08-08T14:04:37.339Z,27.90
2022-08-08T14:07:24.566Z,28.00
2022-08-08T14:10:11.871Z,28.00
2022-08-08T14:12:43.819Z,28.10
2022-08-08T14:15:31.216Z,27.80
2022-08-08T14:18:34.623Z,27.80
2022-08-08T14:21:08.238Z,27.90
2022-08-08T14:24:07.911Z,28.00
2022-08-08T14:26:33.135Z,28.10
2022-08-08T14:29:01.668Z,28.30
2022-08-08T14:32:06.402Z,28.30
2022-08-08T14:34:23.227Z,28.30
2022-08-08T14:36:51.756Z,28.10
2022-08-08T14:39:25.049Z,28.10
2022-08-08T14:42:09.644Z,28.10
2022-08-08T14:44:39.471Z,28.00
2022-08-08T14:47:17.312Z,28.10
2022-08-08T14:50:06.535Z,27.90
2022-08-08T14:52:44.034Z,27.90
2022-08-08T14:55:14.170Z,27.90
2022-08-08T14:58:06.341Z,28.00
2022-08-08T15:00:32.940Z,27.90
2022-08-08T15:03:16.068Z,28.00
2022-08-08T15:05:54.245Z,28.00
2022-08-08T15:08:33.908Z,28.00
2022-08-08T15:11:04.192Z,28.00
2022-08-08T15:13:40.032Z,27.90
2022-08-08T15:16:18.251Z,27.80
2022-08-08T15:18:51.284Z,27.90
2022-08-08T15:21:19.309Z,27.90
2022-08-08T15:23:50.552Z,28.10
2022-08-08T15:26:17.444Z,28.10
2022-08-08T15:28:44.115Z,28.10
2022-08-08T15:31:25.800Z,28.10
2022-08-08T15:33:59.978Z,28.10
2022-08-08T15:36:28.879Z,27.90
2022-08-08T15:38:56.114Z,27.90
2022-08-08T15:41:24.917Z,27.90
2022-08-08T15:44:03.782Z,27.90
2022-08-08T15:46:35.203Z,27.90
2022-08-08T15:49:04.133Z,27.80
2022-08-08T15:51:33.481Z,27.80
2022-08-08T15:54:00.900Z,27.60
2022-08-08T15:56:27.620Z,27.70
2022-08-08T15:58:54.316Z,27.70
2022-08-08T16:01:22.446Z,27.60
2022-08-08T16:03:51.556Z,27.50
2022-08-08T16:06:28.505Z,27.60
2022-08-08T16:13:00.414Z,27.50
2022-08-08T16:13:15.355Z,27.40
2022-08-08T16:14:33.766Z,27.50
2022-08-08T16:17:01.365Z,27.50
2022-08-08T16:19:29.994Z,27.50
2022-08-08T16:21:57.853Z,27.50
2022-08-08T16:24:24.655Z,27.50
2022-08-08T16:26:51.441Z,27.50
2022-08-08T16:29:23.872Z,27.30
2022-08-08T16:32:08.296Z,27.30
2022-08-08T16:34:39.670Z,27.30
2022-08-08T16:37:06.339Z,27.30
2022-08-08T16:40:01.271Z,27.30
2022-08-08T16:42:19.995Z,27.30
2022-08-08T16:44:55.222Z,27.20
2022-08-08T16:47:40.040Z,27.20
2022-08-08T16:50:15.181Z,27.20
2022-08-08T16:55:04.914Z,27.30
2022-08-08T16:55:52.883Z,27.20
2022-08-08T16:58:22.323Z,27.10
2022-08-08T17:00:52.896Z,27.00
2022-08-08T17:03:25.127Z,26.90
2022-08-08T17:06:35.282Z,26.90
2022-08-08T17:08:54.607Z,26.90
2022-08-08T17:11:21.270Z,26.90
2022-08-08T17:14:00.941Z,26.90
2022-08-08T17:16:29.040Z,26.90
2022-08-08T17:18:56.623Z,26.90
2022-08-08T17:21:26.312Z,26.70
2022-08-08T17:24:01.460Z,26.70
2022-08-08T17:26:30.461Z,26.70
2022-08-08T17:29:04.240Z,26.60
2022-08-08T17:31:44.555Z,26.60
2022-08-08T17:34:52.812Z,26.60
2022-08-08T17:37:03.725Z,26.60
2022-08-08T17:40:05.067Z,26.60
2022-08-08T17:42:20.781Z,26.50
2022-08-08T17:44:50.880Z,26.40
2022-08-08T17:47:27.330Z,26.40
2022-08-08T17:50:01.300Z,26.40
2022-08-08T17:52:35.343Z,26.30
2022-08-08T17:55:05.090Z,26.40
2022-08-08T17:57:35.371Z,26.30
2022-08-08T18:00:13.265Z,26.20
2022-08-08T18:02:52.543Z,26.20
2022-08-08T18:05:48.471Z,26.10
2022-08-08T18:08:24.824Z,26.00
2022-08-08T18:11:16.974Z,25.90
2022-08-08T18:13:47.827Z,26.00
2022-08-08T18:16:16.859Z,25.80
2022-08-08T18:18:53.953Z,25.70
2022-08-08T18:21:59.436Z,25.80
2022-08-08T18:24:18.875Z,25.60
2022-08-08T18:26:54.508Z,25.60
2022-08-08T18:29:35.969Z,25.50
2022-08-08T18:32:07.859Z,25.40
2022-08-08T18:34:36.676Z,25.30
2022-08-08T18:37:08.153Z,25.20
2022-08-08T18:39:41.894Z,25.10
2022-08-08T18:42:15.914Z,24.90
2022-08-08T18:44:55.640Z,24.80
2022-08-08T18:47:24.116Z,24.60
2022-08-08T18:49:57.979Z,24.40
2022-08-08T18:52:26.434Z,24.20
2022-08-08T18:55:00.639Z,24.00
2022-08-08T18:57:41.144Z,23.90
2022-08-08T19:00:16.490Z,23.60
2022-08-08T19:02:54.689Z,23.40
2022-08-08T19:05:37.840Z,23.20
2022-08-08T19:08:24.987Z,23.10
2022-08-08T19:10:57.613Z,22.80
2022-08-08T19:13:25.516Z,22.60
2022-08-08T19:16:15.825Z,22.50
2022-08-08T19:18:51.282Z,22.20
2022-08-08T19:21:30.472Z,22.10
2022-08-08T19:23:58.563Z,22.00
2022-08-08T19:26:30.462Z,21.90
2022-08-08T19:29:01.792Z,21.80
2022-08-08T19:31:31.481Z,21.70
2022-08-08T19:34:36.694Z,21.60
2022-08-08T19:36:52.636Z,21.40
2022-08-08T19:39:19.719Z,21.40
2022-08-08T19:41:50.253Z,21.30
2022-08-08T19:44:27.029Z,21.30
2022-08-08T19:47:04.475Z,21.20
2022-08-08T19:49:36.679Z,21.10
2022-08-08T19:52:06.698Z,21.00
2022-08-08T19:54:33.735Z,20.80
2022-08-08T19:57:04.262Z,20.80
2022-08-08T19:59:35.215Z,20.70
2022-08-08T20:02:04.575Z,20.60
2022-08-08T20:04:33.492Z,20.50
2022-08-08T20:07:05.243Z,20.50
2022-08-08T20:09:55.667Z,20.40
2022-08-08T20:12:32.870Z,20.40
2022-08-08T20:15:14.985Z,20.30
2022-08-08T20:17:45.474Z,20.30
2022-08-08T20:20:19.212Z,20.20
2022-08-08T20:22:48.750Z,20.10
2022-08-08T20:25:20.406Z,20.00
2022-08-08T20:27:49.435Z,19.90
2022-08-08T20:30:52.475Z,19.90
2022-08-08T20:33:18.553Z,19.90
2022-08-08T20:35:58.047Z,19.80
2022-08-08T20:38:32.295Z,19.80
2022-08-08T20:41:15.380Z,19.70
2022-08-08T20:43:49.293Z,19.70
2022-08-08T20:46:20.842Z,19.60
2022-08-08T20:48:51.037Z,19.50
2022-08-08T20:51:18.254Z,19.50
2022-08-08T20:54:00.214Z,19.40
2022-08-08T20:56:35.558Z,19.30
2022-08-08T20:59:08.674Z,19.30
2022-08-08T21:01:44.472Z,19.30
2022-08-08T21:04:24.055Z,19.10
2022-08-08T21:06:54.861Z,19.00
2022-08-08T21:09:22.042Z,19.00
2022-08-08T21:11:51.689Z,18.90
2022-08-08T21:14:30.260Z,18.80
2022-08-08T21:17:01.355Z,18.80
2022-08-08T21:19:44.241Z,18.80
2022-08-08T21:22:13.000Z,18.70
2022-08-08T21:24:41.958Z,18.60
2022-08-08T21:27:38.750Z,18.60
2022-08-08T21:30:10.807Z,18.50
2022-08-08T21:32:44.243Z,18.40
2022-08-08T21:36:17.423Z,18.30
2022-08-08T21:38:04.002Z,18.20
2022-08-08T21:40:32.385Z,18.20
2022-08-08T21:42:59.348Z,18.10
2022-08-08T21:48:01.895Z,18.10
2022-08-08T21:48:21.163Z,18.00
2022-08-08T21:50:49.942Z,17.90
2022-08-08T21:54:22.982Z,17.90
2022-08-08T21:56:19.776Z,17.90
2022-08-08T21:58:55.010Z,17.80
2022-08-08T22:01:38.892Z,17.80
2022-08-08T22:04:06.846Z,17.80
2022-08-08T22:06:33.612Z,17.80
2022-08-08T22:09:08.243Z,17.70
2022-08-08T22:12:02.492Z,17.70
2022-08-08T22:14:23.779Z,17.70
2022-08-08T22:16:53.607Z,17.70
2022-08-08T22:19:24.157Z,17.70
2022-08-08T22:21:52.974Z,17.60
2022-08-08T22:24:23.920Z,17.60
2022-08-08T22:27:02.296Z,17.60
2022-08-08T22:29:59.523Z,17.60
2022-08-08T22:32:18.859Z,17.60
2022-08-08T22:34:51.011Z,17.50
2022-08-08T22:37:49.521Z,17.40
2022-08-08T22:40:16.468Z,17.40
2022-08-08T22:42:47.244Z,17.50
2022-08-08T22:45:15.516Z,17.50
2022-08-08T22:47:48.539Z,17.30
2022-08-08T22:50:25.528Z,17.20
2022-08-08T22:54:29.405Z,17.20
2022-08-08T22:55:59.041Z,17.20
2022-08-08T22:58:31.866Z,17.00
2022-08-08T23:01:00.691Z,17.00
2022-08-08T23:03:34.327Z,17.00
2022-08-08T23:06:17.637Z,16.90
2022-08-08T23:08:55.820Z,16.90
2022-08-08T23:11:31.329Z,16.90
2022-08-08T23:14:21.091Z,16.70
2022-08-08T23:16:57.563Z,16.70
2022-08-08T23:19:27.193Z,16.60
2022-08-08T23:21:54.271Z,16.50
2022-08-08T23:24:22.919Z,16.50
2022-08-08T23:26:53.383Z,16.50
2022-08-08T23:29:23.846Z,16.50
2022-08-08T23:31:50.580Z,16.50
2022-08-08T23:34:19.593Z,16.40
2022-08-08T23:36:47.862Z,16.40
2022-08-08T23:39:15.591Z,16.40
2022-08-08T23:41:47.256Z,16.40
2022-08-08T23:44:18.767Z,16.30
2022-08-08T23:49:05.625Z,16.30
2022-08-08T23:49:33.991Z,16.20
2022-08-08T23:52:04.337Z,16.30
2022-08-08T23:54:43.053Z,16.30
2022-08-08T23:57:27.578Z,16.40
